ADDS METAR Data INFO
IDs: Format: Raw Decoded Include TAF

Data at: 1746 UTC 21 Oct 2017

KRSV 211735Z AUTO 19008KT 10SM CLR 22/12 A3016 RMK AO2 T02190121
KRSV 211715Z AUTO 19007KT 10SM CLR 22/12 A3016 RMK AO2 T02190116
KRSV 211655Z AUTO 18008KT 10SM CLR 21/11 A3017 RMK AO2 T02050109
KRSV 211635Z AUTO 18011KT 10SM CLR 20/11 A3017 RMK AO2 T02030109
KRSV 211615Z AUTO 17011G14KT 10SM CLR 21/11 A3017 RMK AO2 T02050108
KRSV 211555Z AUTO 17008G14KT 10SM CLR 19/10 A3017 RMK AO2 T01930102
KRSV 211535Z AUTO 17008KT 10SM CLR 18/10 A3018 RMK AO2 T01820100
KRSV 211515Z AUTO 17007KT 10SM CLR 17/10 A3018 RMK AO2 T01720100
KRSV 211455Z AUTO 17007KT 10SM CLR 17/10 A3018 RMK AO2 T01700104
KRSV 211435Z AUTO 17007KT 10SM CLR 16/11 A3017 RMK AO2 T01570107
KRSV 211415Z AUTO 16006KT 10SM CLR 14/11 A3018 RMK AO2 T01430109
KRSV 211355Z AUTO 16006KT 10SM CLR 13/10 A3018 RMK AO2 T01300102
KRSV 211335Z AUTO 16005KT 10SM CLR 12/10 A3018 RMK AO2 T01240098
KRSV 211315Z AUTO 00000KT 10SM CLR 11/09 A3018 RMK AO2 T01060091
KRSV 211255Z AUTO 00000KT 10SM CLR 09/08 A3018 RMK AO2 T00860079
KRSV 211235Z AUTO 00000KT 10SM CLR 08/07 A3017 RMK AO2 T00830073
KRSV 211215Z AUTO 00000KT 10SM CLR 09/08 A3016 RMK AO2 T00870080
KRSV 211200Z AUTO 00000KT 10SM CLR 09/08 A3016 RMK AO2 T00900078
KRSV 211135Z AUTO 00000KT 10SM CLR 07/07 A3016 RMK AO2 T00720070
KRSV 211115Z AUTO 00000KT 10SM CLR 08/07 A3016 RMK AO2 T00780070
KRSV 211055Z AUTO 00000KT 10SM CLR 09/08 A3015 RMK AO2 LTG DSNT NW T00860079
KRSV 211035Z AUTO 00000KT 10SM CLR 08/07 A3015 RMK AO2 T00840074
KRSV 211015Z AUTO 00000KT 10SM CLR 09/08 A3015 RMK AO2 T00910080
KRSV 210955Z AUTO 00000KT 10SM CLR 09/08 A3014 RMK AO2 T00880079
KRSV 210935Z AUTO 00000KT 10SM CLR 09/08 A3014 RMK AO2 T00930081
KRSV 210915Z AUTO 15006KT 10SM CLR 10/09 A3013 RMK AO2 T01010087
KRSV 210855Z AUTO 14006KT 10SM CLR 10/09 A3012 RMK AO2 T00970086
KRSV 210835Z AUTO 12004KT 10SM CLR 11/09 A3012 RMK AO2 T01050090
KRSV 210815Z AUTO 00000KT 10SM CLR 11/09 A3013 RMK AO2 T01060091
KRSV 210755Z AUTO 00000KT 10SM CLR 11/09 A3013 RMK AO2 T01050092
KRSV 210735Z AUTO 11004KT 10SM CLR 11/10 A3013 RMK AO2 T01090095
KRSV 210715Z AUTO 13003KT 10SM CLR 11/09 A3013 RMK AO2 T01050092
KRSV 210655Z AUTO 00000KT 10SM CLR 11/10 A3014 RMK AO2 T01080095
KRSV 210635Z AUTO 00000KT 10SM CLR 11/09 A3013 RMK AO2 T01110091
KRSV 210615Z AUTO 00000KT 10SM CLR 10/09 A3013 RMK AO2 T01040085
KRSV 210555Z AUTO 16003KT 10SM CLR 11/09 A3013 RMK AO2 T01080090 10165 20096 402540058
KRSV 210535Z AUTO 00000KT 10SM CLR 10/09 A3013 RMK AO2 T01010086
KRSV 210515Z AUTO 00000KT 10SM CLR 10/09 A3014 RMK AO2 T01020089
KRSV 210455Z AUTO 00000KT 10SM CLR 12/09 A3014 RMK AO2 T01160089
KRSV 210435Z AUTO 16003KT 10SM CLR 12/09 A3014 RMK AO2 T01220092
KRSV 210415Z AUTO 16004KT 10SM CLR 12/09 A3014 RMK AO2 T01160088
KRSV 210355Z AUTO 13006KT 10SM CLR 11/08 A3013 RMK AO2 T01060084
KRSV 210335Z AUTO 00000KT 10SM CLR 13/09 A3015 RMK AO2 T01260091
KRSV 210315Z AUTO 00000KT 10SM CLR 13/09 A3015 RMK AO2 T01320093
KRSV 210255Z AUTO 17003KT 10SM CLR 14/10 A3014 RMK AO2 T01400095
KRSV 210235Z AUTO 18003KT 10SM CLR 15/10 A3014 RMK AO2 T01500098
KRSV 210215Z AUTO 16006KT 10SM CLR 15/10 A3013 RMK AO2 T01460097
KRSV 210155Z AUTO 15006KT 10SM CLR 15/10 A3013 RMK AO2 T01460096
KRSV 210135Z AUTO 16005KT 10SM CLR 15/10 A3014 RMK AO2 T01510099
KRSV 210115Z AUTO 16006KT 10SM CLR 15/10 A3014 RMK AO2 T01490098
KRSV 210055Z AUTO 16004KT 10SM CLR 15/10 A3014 RMK AO2 T01470096
KRSV 210035Z AUTO 16005KT 7SM CLR 16/10 A3014 RMK AO2 T01590096
KRSV 210015Z AUTO 16006KT 10SM CLR 16/10 A3014 RMK AO2 T01610096
KRSV 202355Z AUTO 15005KT 10SM CLR 16/10 A3014 RMK AO2 T01620098 10254 20161
KRSV 202335Z AUTO 17004KT 10SM CLR 17/10 A3014 RMK AO2 T01730100
KRSV 202315Z AUTO 16004KT 10SM CLR 18/10 A3014 RMK AO2 T01840101
KRSV 202255Z AUTO 16003KT 7SM CLR 19/10 A3014 RMK AO2 T01910104
KRSV 202235Z AUTO 16004KT 10SM CLR 21/11 A3014 RMK AO2 T02070105
KRSV 202215Z AUTO 15004KT 10SM CLR 23/10 A3014 RMK AO2 T02290103
KRSV 202155Z AUTO 17007KT 10SM CLR 24/10 A3014 RMK AO2 T02370099
KRSV 202135Z AUTO 16009KT 10SM CLR 25/10 A3014 RMK AO2 T02470104
KRSV 202115Z AUTO 17007KT 10SM CLR 25/10 A3014 RMK AO2 T02450097
KRSV 202055Z AUTO 16006KT 10SM CLR 25/09 A3015 RMK AO2 T02510094
KRSV 202035Z AUTO 15006KT 10SM CLR 25/10 A3015 RMK AO2 T02530099
KRSV 202015Z AUTO 17006KT 10SM CLR 25/09 A3016 RMK AO2 T02520094
KRSV 201955Z AUTO 15007KT 10SM CLR 25/10 A3016 RMK AO2 T02460100
KRSV 201935Z AUTO 16005KT 10SM CLR 25/11 A3017 RMK AO2 T02520105
KRSV 201915Z AUTO 16005KT 10SM CLR 25/11 A3017 RMK AO2 T02480107
KRSV 201855Z AUTO 16007KT 10SM CLR 25/11 A3018 RMK AO2 T02470108
KRSV 201835Z AUTO 15006KT 10SM CLR 24/11 A3019 RMK AO2 T02400106
KRSV 201815Z AUTO 15005KT 10SM CLR 24/11 A3020 RMK AO2 T02410108
KRSV 201755Z AUTO 19006KT 10SM CLR 24/11 A3022 RMK AO2 T02390106 10239 20062
KRSV 201735Z AUTO 19005KT 10SM CLR 23/11 A3023 RMK AO2 T02310110
KRSV 201715Z AUTO 17008KT 10SM CLR 23/11 A3024 RMK AO2 T02290111
KRSV 201655Z AUTO 21007KT 10SM CLR 23/11 A3025 RMK AO2 T02270111
KRSV 201635Z AUTO 20003KT 10SM CLR 22/12 A3026 RMK AO2 T02180118
KRSV 201615Z AUTO 20006KT 10SM CLR 21/12 A3026 RMK AO2 T02090120
KRSV 201555Z AUTO 19004KT 10SM CLR 20/12 A3027 RMK AO2 T02010122
KRSV 201535Z AUTO 17004KT 10SM CLR 19/12 A3027 RMK AO2 T01930123
KRSV 201515Z AUTO 21003KT 10SM CLR 19/12 A3027 RMK AO2 T01850121
KRSV 201455Z AUTO 16003KT 10SM CLR 17/12 A3027 RMK AO2 T01740120
KRSV 201435Z AUTO 18003KT 10SM CLR 16/12 A3028 RMK AO2 T01610118
KRSV 201415Z AUTO 00000KT 10SM CLR 15/12 A3028 RMK AO2 T01510116
KRSV 201355Z AUTO 00000KT 10SM CLR 14/12 A3029 RMK AO2 T01390122
KRSV 201335Z AUTO 00000KT 10SM CLR 12/11 A3029 RMK AO2 T01180110
KRSV 201315Z AUTO 00000KT 10SM CLR 10/10 A3027 RMK AO2 T01030103
KRSV 201255Z AUTO 00000KT 10SM CLR 09/09 A3027 RMK AO2 T00850085
KRSV 201235Z AUTO 00000KT 7SM CLR 07/07 A3027 RMK AO2 T00730073
KRSV 201215Z AUTO 00000KT 1/2SM FG VV005 07/07 A3027 RMK AO2 T00700070
KRSV 201155Z AUTO 00000KT 1/2SM FG VV005 06/06 A3027 RMK AO2 T00610061 10093 20058
KRSV 201135Z AUTO 00000KT 2SM BR CLR 06/06 A3026 RMK AO2 T00610061
KRSV 201115Z AUTO 00000KT 1/2SM FG VV005 07/07 A3026 RMK AO2 T00660066
KRSV 201055Z AUTO 00000KT 10SM CLR 07/07 A3025 RMK AO2 T00690069
KRSV 201035Z AUTO 00000KT 7SM CLR 07/07 A3025 RMK AO2 T00710071
KRSV 201015Z AUTO 00000KT 10SM CLR 08/08 A3024 RMK AO2 T00750075
KRSV 200955Z AUTO 00000KT 3/4SM BR VV005 07/07 A3024 RMK AO2 T00660066
KRSV 200935Z AUTO 00000KT 3/4SM BR VV005 07/07 A3024 RMK AO2 T00720072
KRSV 200915Z AUTO 00000KT 4SM BR CLR 08/08 A3023 RMK AO2 T00750075
KRSV 200855Z AUTO 00000KT 1 3/4SM BR VV007 07/07 A3023 RMK AO2 T00730073
KRSV 200835Z AUTO 00000KT 3/4SM BR VV005 08/08 A3023 RMK AO2 T00750075
KRSV 200815Z AUTO 00000KT 1/2SM FG VV005 07/07 A3023 RMK AO2 T00740073
KRSV 200755Z AUTO 00000KT 10SM CLR 09/09 A3023 RMK AO2 T00890088
KRSV 200735Z AUTO 00000KT 7SM CLR 09/09 A3023 RMK AO2 T00920091
KRSV 200715Z AUTO 00000KT 10SM CLR 09/09 A3022 RMK AO2 T00880087
KRSV 200700Z AUTO 00000KT 10SM CLR 09/09 A3022 RMK AO2 T00890087
KRSV 200635Z AUTO 00000KT 10SM CLR 09/09 A3022 RMK AO2 T00870087
KRSV 200615Z AUTO 00000KT 10SM CLR 09/09 A3022 RMK AO2 T00900090
KRSV 200555Z AUTO 00000KT 7SM CLR 09/09 A3022 RMK AO2 T00930089 10160 20087 402500062